createdAt,value
2023-05-20T00:00:23.142Z,101656.50
2023-05-20T00:03:10.763Z,101660.22
2023-05-20T00:05:38.437Z,101659.84
2023-05-20T00:08:09.368Z,101648.59
2023-05-20T00:10:36.987Z,101656.31
2023-05-20T00:13:04.340Z,101648.94
2023-05-20T00:15:32.847Z,101656.13
2023-05-20T00:18:04.261Z,101650.91
2023-05-20T00:20:32.695Z,101650.00
2023-05-20T00:23:00.186Z,101648.75
2023-05-20T00:25:27.710Z,101655.16
2023-05-20T00:27:54.938Z,101648.78
2023-05-20T00:30:22.715Z,101655.91
2023-05-20T00:32:50.062Z,101648.72
2023-05-20T00:35:17.748Z,101649.44
2023-05-20T00:37:45.807Z,101667.41
2023-05-20T00:40:15.401Z,101646.06
2023-05-20T00:42:43.473Z,101650.00
2023-05-20T00:45:11.292Z,101645.59
2023-05-20T00:47:39.366Z,101642.78
2023-05-20T00:50:10.568Z,101641.53
2023-05-20T00:52:41.678Z,101646.22
2023-05-20T00:55:09.637Z,101640.81
2023-05-20T00:57:37.044Z,101645.22
2023-05-20T01:00:06.026Z,101662.28
2023-05-20T01:02:33.463Z,101654.84
2023-05-20T01:05:01.561Z,101647.50
2023-05-20T01:07:28.994Z,101657.53
2023-05-20T01:09:56.688Z,101648.59
2023-05-20T01:12:29.826Z,101642.44
2023-05-20T01:15:11.911Z,101651.75
2023-05-20T01:17:45.215Z,101654.09
2023-05-20T01:20:14.883Z,101648.75
2023-05-20T01:22:49.607Z,101637.00
2023-05-20T01:25:17.197Z,101638.78
2023-05-20T01:27:49.099Z,101641.97
2023-05-20T01:30:17.235Z,101644.38
2023-05-20T01:33:09.330Z,101632.22
2023-05-20T01:35:38.980Z,101636.88
2023-05-20T01:38:07.951Z,101635.75
2023-05-20T01:40:36.278Z,101633.31
2023-05-20T01:43:03.901Z,101636.81
2023-05-20T01:45:31.957Z,101631.44
2023-05-20T01:48:01.867Z,101629.94
2023-05-20T01:50:29.687Z,101631.03
2023-05-20T01:52:56.946Z,101627.91
2023-05-20T01:55:25.748Z,101614.22
2023-05-20T01:57:52.960Z,101626.59
2023-05-20T02:00:21.518Z,101616.91
2023-05-20T02:02:49.481Z,101626.09
2023-05-20T02:05:17.312Z,101612.13
2023-05-20T02:07:44.818Z,101624.16
2023-05-20T02:10:12.492Z,101628.44
2023-05-20T02:12:39.765Z,101621.56
2023-05-20T02:15:07.782Z,101620.81
2023-05-20T02:17:36.115Z,101625.09
2023-05-20T02:20:06.712Z,101614.22
2023-05-20T02:22:35.173Z,101615.31
2023-05-20T02:25:04.497Z,101619.00
2023-05-20T02:27:31.871Z,101617.53
2023-05-20T02:30:01.002Z,101614.97
2023-05-20T02:32:29.057Z,101614.09
2023-05-20T02:34:56.717Z,101617.78
2023-05-20T02:37:24.054Z,101616.53
2023-05-20T02:39:51.729Z,101610.28
2023-05-20T02:42:19.020Z,101620.25
2023-05-20T02:44:46.813Z,101615.06
2023-05-20T02:47:14.562Z,101614.56
2023-05-20T02:49:42.366Z,101619.63
2023-05-20T02:52:10.453Z,101626.25
2023-05-20T02:54:38.011Z,101614.81
2023-05-20T02:57:05.624Z,101611.28
2023-05-20T02:59:33.219Z,101612.75
2023-05-20T03:02:00.588Z,101609.06
2023-05-20T03:04:28.405Z,101599.72
2023-05-20T03:06:57.873Z,101603.44
2023-05-20T03:09:25.685Z,101611.13
2023-05-20T03:11:53.017Z,101608.81
2023-05-20T03:14:20.584Z,101595.34
2023-05-20T03:16:47.819Z,101609.03
2023-05-20T03:19:16.428Z,101607.56
2023-05-20T03:21:43.937Z,101610.00
2023-05-20T03:24:11.501Z,101611.13
2023-05-20T03:26:43.181Z,101614.56
2023-05-20T03:29:11.097Z,101605.88
2023-05-20T03:31:38.453Z,101615.94
2023-05-20T03:34:06.302Z,101609.88
2023-05-20T03:36:33.626Z,101618.00
2023-05-20T03:39:02.159Z,101618.59
2023-05-20T03:41:30.556Z,101615.94
2023-05-20T03:43:58.272Z,101618.97
2023-05-20T03:46:27.031Z,101611.00
2023-05-20T03:48:54.621Z,101603.00
2023-05-20T03:51:22.870Z,101605.59
2023-05-20T03:53:51.349Z,101612.47
2023-05-20T03:56:18.588Z,101605.75
2023-05-20T03:58:45.964Z,101619.84
2023-05-20T04:01:14.422Z,101624.59
2023-05-20T04:03:44.859Z,101601.88
2023-05-20T04:06:14.133Z,101614.44
2023-05-20T04:08:42.509Z,101612.44
2023-05-20T04:11:10.362Z,101615.75
2023-05-20T04:13:37.642Z,101613.78
2023-05-20T04:16:05.748Z,101615.25
2023-05-20T04:18:33.023Z,101621.50
2023-05-20T04:21:01.708Z,101607.94
2023-05-20T04:23:29.368Z,101625.34
2023-05-20T04:26:02.792Z,101609.09
2023-05-20T04:28:33.390Z,101618.94
2023-05-20T04:31:04.746Z,101604.81
2023-05-20T04:33:38.165Z,101607.53
2023-05-20T04:36:15.581Z,101617.84
2023-05-20T04:38:44.606Z,101612.03
2023-05-20T04:41:12.236Z,101602.25
2023-05-20T04:43:40.428Z,101607.53
2023-05-20T04:46:08.973Z,101603.94
2023-05-20T04:48:36.760Z,101605.97
2023-05-20T04:51:04.495Z,101612.34
2023-05-20T04:53:34.051Z,101608.44
2023-05-20T04:56:03.560Z,101603.69
2023-05-20T04:58:31.850Z,101622.28
2023-05-20T05:01:00.243Z,101613.22
2023-05-20T05:03:28.716Z,101624.50
2023-05-20T05:05:59.001Z,101616.03
2023-05-20T05:08:27.108Z,101613.31
2023-05-20T05:10:55.020Z,101627.56
2023-05-20T05:13:22.326Z,101623.53
2023-05-20T05:15:58.745Z,101620.03
2023-05-20T05:18:26.828Z,101615.13
2023-05-20T05:21:05.890Z,101628.84
2023-05-20T05:23:35.105Z,101626.06
2023-05-20T05:26:02.814Z,101630.19
2023-05-20T05:28:30.163Z,101623.78
2023-05-20T05:30:58.748Z,101616.63
2023-05-20T05:33:26.809Z,101625.19
2023-05-20T05:35:56.860Z,101624.25
2023-05-20T05:38:24.106Z,101616.63
2023-05-20T05:40:51.907Z,101615.31
2023-05-20T05:43:19.180Z,101618.16
2023-05-20T05:45:48.792Z,101608.66
2023-05-20T05:48:16.183Z,101627.47
2023-05-20T05:50:46.195Z,101625.06
2023-05-20T05:53:15.277Z,101619.91
2023-05-20T05:55:48.598Z,101619.00
2023-05-20T05:58:17.248Z,101619.91
2023-05-20T06:00:44.836Z,101621.78
2023-05-20T06:03:12.989Z,101622.19
2023-05-20T06:05:41.012Z,101613.91
2023-05-20T06:08:08.897Z,101617.19
2023-05-20T06:10:37.318Z,101626.88
2023-05-20T06:13:05.098Z,101632.16
2023-05-20T06:15:33.922Z,101620.63
2023-05-20T06:18:02.293Z,101631.47
2023-05-20T06:20:29.965Z,101614.94
2023-05-20T06:22:57.349Z,101623.34
2023-05-20T06:25:29.634Z,101616.69
2023-05-20T06:27:57.015Z,101610.44
2023-05-20T06:30:25.233Z,101616.03
2023-05-20T06:32:52.686Z,101611.97
2023-05-20T06:35:20.449Z,101628.38
2023-05-20T06:37:47.745Z,101630.38
2023-05-20T06:40:15.507Z,101635.25
2023-05-20T06:42:42.784Z,101638.09
2023-05-20T06:45:10.977Z,101621.94
2023-05-20T06:47:45.242Z,101629.03
2023-05-20T06:50:12.887Z,101627.53
2023-05-20T06:52:40.387Z,101631.28
2023-05-20T06:55:09.906Z,101630.38
2023-05-20T06:57:37.363Z,101620.03
2023-05-20T07:00:06.086Z,101620.06
2023-05-20T07:02:38.001Z,101613.97
2023-05-20T07:05:06.812Z,101613.69
2023-05-20T07:07:34.767Z,101620.13
2023-05-20T07:10:02.512Z,101616.97
2023-05-20T07:12:29.790Z,101613.56
2023-05-20T07:14:57.301Z,101609.66
2023-05-20T07:17:25.184Z,101611.03
2023-05-20T07:19:52.788Z,101620.19
2023-05-20T07:22:20.328Z,101613.56
2023-05-20T07:25:07.047Z,101609.28
2023-05-20T07:27:36.644Z,101608.88
2023-05-20T07:30:04.655Z,101604.06
2023-05-20T07:32:33.362Z,101608.03
2023-05-20T07:35:01.480Z,101610.66
2023-05-20T07:37:29.033Z,101598.06
2023-05-20T07:39:56.807Z,101599.94
2023-05-20T07:42:24.113Z,101590.91
2023-05-20T07:44:56.163Z,101594.59
2023-05-20T07:47:23.411Z,101594.38
2023-05-20T07:49:51.001Z,101604.78
2023-05-20T07:52:18.333Z,101601.56
2023-05-20T07:54:46.486Z,101607.97
2023-05-20T07:57:15.053Z,101591.03
2023-05-20T07:59:42.736Z,101597.56
2023-05-20T08:02:10.181Z,101601.31
2023-05-20T08:04:38.181Z,101603.03
2023-05-20T08:07:05.711Z,101600.13
2023-05-20T08:09:42.281Z,101596.69
2023-05-20T08:12:09.655Z,101593.66
2023-05-20T08:14:37.456Z,101610.94
2023-05-20T08:17:04.810Z,101590.84
2023-05-20T08:19:32.490Z,101601.97
2023-05-20T08:21:59.809Z,101597.66
2023-05-20T08:24:27.782Z,101586.63
2023-05-20T08:26:55.796Z,101592.75
2023-05-20T08:29:26.123Z,101603.72
2023-05-20T08:31:53.592Z,101597.59
2023-05-20T08:34:21.869Z,101605.53
2023-05-20T08:36:49.667Z,101594.16
2023-05-20T08:39:16.986Z,101600.88
2023-05-20T08:41:47.282Z,101583.59
2023-05-20T08:44:14.770Z,101589.53
2023-05-20T08:46:44.143Z,101583.47
2023-05-20T08:49:11.859Z,101592.47
2023-05-20T08:51:40.016Z,101587.38
2023-05-20T08:54:09.651Z,101590.78
2023-05-20T08:56:38.342Z,101585.91
2023-05-20T08:59:06.650Z,101570.81
2023-05-20T09:01:45.745Z,101574.47
2023-05-20T09:04:13.171Z,101575.66
2023-05-20T09:06:45.352Z,101575.66
2023-05-20T09:09:16.045Z,101579.16
2023-05-20T09:11:44.010Z,101578.38
2023-05-20T09:14:11.313Z,101584.22
2023-05-20T09:16:41.379Z,101573.09
2023-05-20T09:19:10.057Z,101591.50
2023-05-20T09:21:39.098Z,101589.59
2023-05-20T09:24:07.246Z,101585.41
2023-05-20T09:26:34.727Z,101579.72
2023-05-20T09:29:02.282Z,101575.00
2023-05-20T09:31:33.975Z,101578.66
2023-05-20T09:34:02.159Z,101583.78
2023-05-20T09:36:31.911Z,101586.22
2023-05-20T09:39:05.846Z,101576.06
2023-05-20T09:41:45.121Z,101569.38
2023-05-20T09:44:13.207Z,101584.06
2023-05-20T09:46:41.463Z,101591.47
2023-05-20T09:49:10.276Z,101577.44
2023-05-20T09:51:38.029Z,101574.44
2023-05-20T09:54:08.527Z,101575.06
2023-05-20T09:56:37.380Z,101578.03
2023-05-20T09:59:05.853Z,101578.22
2023-05-20T10:01:33.124Z,101582.78
2023-05-20T10:04:01.895Z,101582.56
2023-05-20T10:06:47.161Z,101579.88
2023-05-20T10:09:22.990Z,101581.28
2023-05-20T10:12:11.727Z,101576.44
2023-05-20T10:14:55.798Z,101589.59
2023-05-20T10:17:31.891Z,101574.00
2023-05-20T10:20:00.583Z,101584.31
2023-05-20T10:22:29.962Z,101594.47
2023-05-20T10:25:06.889Z,101585.75
2023-05-20T10:27:48.151Z,101593.28
2023-05-20T10:30:17.734Z,101576.50
2023-05-20T10:33:16.654Z,101583.63
2023-05-20T10:35:50.473Z,101576.38
2023-05-20T10:38:18.442Z,101566.16
2023-05-20T10:40:45.953Z,101573.38
2023-05-20T10:43:14.994Z,101575.88
2023-05-20T10:45:49.864Z,101574.16
2023-05-20T10:48:30.489Z,101571.16
2023-05-20T10:51:00.527Z,101570.56
2023-05-20T10:53:34.131Z,101556.81
2023-05-20T10:56:03.119Z,101564.19
2023-05-20T10:58:37.970Z,101569.81
2023-05-20T11:01:05.752Z,101553.63
2023-05-20T11:03:34.977Z,101566.81
2023-05-20T11:06:02.850Z,101554.16
2023-05-20T11:08:33.672Z,101546.19
2023-05-20T11:11:01.409Z,101544.81
2023-05-20T11:13:28.837Z,101541.88
2023-05-20T11:15:59.380Z,101531.47
2023-05-20T11:18:32.510Z,101552.84
2023-05-20T11:21:01.208Z,101540.59
2023-05-20T11:23:29.713Z,101534.88
2023-05-20T11:25:57.852Z,101530.91
2023-05-20T11:28:25.777Z,101526.03
2023-05-20T11:30:54.090Z,101545.25
2023-05-20T11:33:21.479Z,101541.84
2023-05-20T11:35:51.857Z,101525.75
2023-05-20T11:38:20.745Z,101529.63
2023-05-20T11:40:52.094Z,101521.22
2023-05-20T11:43:20.452Z,101522.19
2023-05-20T11:45:53.627Z,101522.88
2023-05-20T11:48:22.093Z,101513.00
2023-05-20T11:50:49.706Z,101518.44
2023-05-20T11:53:19.476Z,101522.22
2023-05-20T11:55:51.150Z,101528.94
2023-05-20T11:58:32.266Z,101516.13
2023-05-20T12:01:13.249Z,101522.56
2023-05-20T12:03:47.552Z,101527.63
2023-05-20T12:06:15.236Z,101520.53
2023-05-20T12:08:42.573Z,101521.66
2023-05-20T12:11:10.112Z,101526.28
2023-05-20T12:13:38.052Z,101520.81
2023-05-20T12:16:06.110Z,101513.63
2023-05-20T12:18:33.640Z,101519.16
2023-05-20T12:21:01.644Z,101515.28
2023-05-20T12:23:30.903Z,101509.94
2023-05-20T12:25:58.451Z,101513.00
2023-05-20T12:28:25.757Z,101509.94
2023-05-20T12:30:53.303Z,101503.09
2023-05-20T12:33:20.922Z,101495.47
2023-05-20T12:35:48.592Z,101500.81
2023-05-20T12:38:15.917Z,101482.97
2023-05-20T12:40:44.185Z,101496.72
2023-05-20T12:43:11.424Z,101489.66
2023-05-20T12:45:38.958Z,101487.94
2023-05-20T12:48:08.091Z,101489.09
2023-05-20T12:50:36.395Z,101478.81
2023-05-20T12:53:03.795Z,101483.41
2023-05-20T12:55:32.625Z,101482.94
2023-05-20T12:57:59.908Z,101465.66
2023-05-20T13:00:27.567Z,101469.50
2023-05-20T13:02:55.143Z,101474.41
2023-05-20T13:05:23.091Z,101467.16
2023-05-20T13:07:50.338Z,101476.91
2023-05-20T13:10:18.711Z,101470.28
2023-05-20T13:12:46.464Z,101462.03
2023-05-20T13:15:17.830Z,101458.19
2023-05-20T13:17:45.137Z,101460.91
2023-05-20T13:20:13.304Z,101453.59
2023-05-20T13:22:40.796Z,101439.53
2023-05-20T13:25:09.597Z,101439.06
2023-05-20T13:27:36.870Z,101445.91
2023-05-20T13:30:06.345Z,101443.88
2023-05-20T13:32:33.896Z,101443.88
2023-05-20T13:35:01.516Z,101446.38
2023-05-20T13:37:28.845Z,101446.66
2023-05-20T13:39:56.387Z,101452.41
2023-05-20T13:42:23.963Z,101433.44
2023-05-20T13:44:51.603Z,101433.91
2023-05-20T13:47:18.894Z,101435.00
2023-05-20T13:49:46.456Z,101433.28
2023-05-20T13:52:13.791Z,101429.91
2023-05-20T13:54:43.067Z,101430.56
2023-05-20T13:57:10.661Z,101424.78
2023-05-20T13:59:38.699Z,101422.44
2023-05-20T14:02:06.096Z,101407.78
2023-05-20T14:04:39.971Z,101413.88
2023-05-20T14:07:09.777Z,101416.91
2023-05-20T14:09:37.997Z,101412.22
2023-05-20T14:12:06.405Z,101408.66
2023-05-20T14:14:34.232Z,101412.91
2023-05-20T14:17:01.756Z,101413.69
2023-05-20T14:19:30.147Z,101411.00
2023-05-20T14:22:01.107Z,101411.47
2023-05-20T14:24:28.868Z,101400.97
2023-05-20T14:26:56.316Z,101396.34
2023-05-20T14:29:23.920Z,101400.13
2023-05-20T14:31:51.424Z,101401.31
2023-05-20T14:34:18.970Z,101402.66
2023-05-20T14:36:46.277Z,101405.72
2023-05-20T14:39:13.905Z,101417.97
2023-05-20T14:41:41.204Z,101407.94
2023-05-20T14:44:08.729Z,101402.28
2023-05-20T14:46:36.493Z,101411.50
2023-05-20T14:49:04.130Z,101404.44
2023-05-20T14:51:31.585Z,101391.72
2023-05-20T14:53:59.222Z,101390.19
2023-05-20T14:56:27.010Z,101403.34
2023-05-20T14:58:54.593Z,101392.09
2023-05-20T15:01:21.947Z,101398.06
2023-05-20T15:03:49.530Z,101383.59
2023-05-20T15:06:16.802Z,101388.94
2023-05-20T15:08:44.416Z,101381.72
2023-05-20T15:11:11.650Z,101381.34
2023-05-20T15:13:40.423Z,101388.00
2023-05-20T15:16:08.147Z,101379.72
2023-05-20T15:18:35.821Z,101383.25
2023-05-20T15:21:03.294Z,101369.28
2023-05-20T15:23:31.052Z,101372.00
2023-05-20T15:25:58.635Z,101363.50
2023-05-20T15:28:26.324Z,101358.06
2023-05-20T15:30:55.475Z,101355.50
2023-05-20T15:33:23.436Z,101358.91
2023-05-20T15:35:51.009Z,101356.97
2023-05-20T15:38:18.673Z,101351.75
2023-05-20T15:40:47.486Z,101339.66
2023-05-20T15:43:15.185Z,101352.47
2023-05-20T15:45:42.737Z,101354.66
2023-05-20T15:48:10.401Z,101359.94
2023-05-20T15:50:38.614Z,101350.75
2023-05-20T15:53:07.135Z,101345.31
2023-05-20T15:55:35.107Z,101340.03
2023-05-20T15:58:02.945Z,101338.84
2023-05-20T16:00:30.246Z,101337.47
2023-05-20T16:02:57.980Z,101318.75
2023-05-20T16:05:25.729Z,101325.91
2023-05-20T16:07:53.567Z,101334.16
2023-05-20T16:10:21.303Z,101315.19
2023-05-20T16:12:49.556Z,101319.09
2023-05-20T16:15:16.938Z,101317.91
2023-05-20T16:17:44.505Z,101314.19
2023-05-20T16:20:11.958Z,101309.44
2023-05-20T16:22:39.562Z,101324.41
2023-05-20T16:25:07.028Z,101314.47
2023-05-20T16:27:34.637Z,101305.66
2023-05-20T16:30:01.947Z,101298.16
2023-05-20T16:32:29.974Z,101303.25
2023-05-20T16:34:57.343Z,101301.59
2023-05-20T16:37:24.936Z,101306.53
2023-05-20T16:39:52.211Z,101296.16
2023-05-20T16:42:19.900Z,101302.78
2023-05-20T16:44:50.478Z,101289.78
2023-05-20T16:47:18.110Z,101302.22
2023-05-20T16:49:45.411Z,101299.78
2023-05-20T16:52:12.992Z,101299.13
2023-05-20T16:54:40.681Z,101297.38
2023-05-20T16:57:08.458Z,101291.09
2023-05-20T16:59:35.749Z,101288.53
2023-05-20T17:02:03.365Z,101297.03
2023-05-20T17:04:30.798Z,101283.75
2023-05-20T17:06:58.681Z,101290.03
2023-05-20T17:09:26.074Z,101292.06
2023-05-20T17:11:54.668Z,101281.00
2023-05-20T17:14:22.240Z,101283.88
2023-05-20T17:16:49.947Z,101282.88
2023-05-20T17:19:17.411Z,101279.41
2023-05-20T17:21:45.746Z,101286.72
2023-05-20T17:24:13.029Z,101289.09
2023-05-20T17:26:40.751Z,101282.06
2023-05-20T17:29:08.002Z,101290.97
2023-05-20T17:31:35.621Z,101284.94
2023-05-20T17:34:03.003Z,101288.34
2023-05-20T17:36:31.531Z,101281.22
2023-05-20T17:38:58.914Z,101287.88
2023-05-20T17:41:28.039Z,101281.88
2023-05-20T17:43:55.339Z,101283.78
2023-05-20T17:46:23.350Z,101279.34
2023-05-20T17:48:50.658Z,101285.66
2023-05-20T17:51:21.100Z,101283.34
2023-05-20T17:53:48.359Z,101284.31
2023-05-20T17:56:16.400Z,101289.84
2023-05-20T17:58:45.126Z,101278.66
2023-05-20T18:01:12.808Z,101273.22
2023-05-20T18:03:40.697Z,101284.94
2023-05-20T18:06:08.875Z,101293.97
2023-05-20T18:08:36.273Z,101280.78
2023-05-20T18:11:04.043Z,101283.88
2023-05-20T18:13:31.666Z,101286.91
2023-05-20T18:15:59.407Z,101274.72
2023-05-20T18:18:26.868Z,101287.59
2023-05-20T18:20:54.469Z,101272.34
2023-05-20T18:23:21.775Z,101288.59
2023-05-20T18:25:49.431Z,101275.72
2023-05-20T18:28:16.904Z,101266.94
2023-05-20T18:30:44.539Z,101273.53
2023-05-20T18:33:11.786Z,101274.38
2023-05-20T18:35:39.461Z,101277.59
2023-05-20T18:38:07.258Z,101277.00
2023-05-20T18:40:35.188Z,101269.16
2023-05-20T18:43:02.662Z,101279.44
2023-05-20T18:45:30.360Z,101280.38
2023-05-20T18:47:59.981Z,101275.97
2023-05-20T18:50:27.849Z,101267.09
2023-05-20T18:52:55.083Z,101268.75
2023-05-20T18:55:23.989Z,101269.28
2023-05-20T18:57:52.045Z,101275.25
2023-05-20T19:00:19.742Z,101276.59
2023-05-20T19:02:47.109Z,101278.75
2023-05-20T19:05:14.849Z,101275.00
2023-05-20T19:07:42.218Z,101278.41
2023-05-20T19:10:10.252Z,101276.44
2023-05-20T19:12:37.551Z,101286.66
2023-05-20T19:15:05.884Z,101275.41
2023-05-20T19:17:33.242Z,101270.59
2023-05-20T19:20:01.012Z,101268.56
2023-05-20T19:22:28.268Z,101271.41
2023-05-20T19:24:56.100Z,101282.44
2023-05-20T19:27:23.318Z,101273.63
2023-05-20T19:29:50.914Z,101272.69
2023-05-20T19:32:18.334Z,101277.16
2023-05-20T19:34:45.881Z,101278.13
2023-05-20T19:37:13.153Z,101266.03
2023-05-20T19:39:40.716Z,101276.44
2023-05-20T19:42:08.104Z,101280.97
2023-05-20T19:44:35.840Z,101270.78
2023-05-20T19:47:05.604Z,101269.25
2023-05-20T19:49:33.187Z,101266.03
2023-05-20T19:52:00.458Z,101271.84
2023-05-20T19:54:28.029Z,101266.19
2023-05-20T19:56:55.530Z,101265.94
2023-05-20T19:59:23.128Z,101263.03
2023-05-20T20:01:51.534Z,101267.03
2023-05-20T20:04:19.465Z,101269.19
2023-05-20T20:06:48.151Z,101264.50
2023-05-20T20:09:16.128Z,101256.66
2023-05-20T20:11:43.557Z,101257.72
2023-05-20T20:14:11.183Z,101263.28
2023-05-20T20:16:38.730Z,101259.63
2023-05-20T20:19:06.373Z,101261.50
2023-05-20T20:21:33.609Z,101263.34
2023-05-20T20:24:01.485Z,101268.94
2023-05-20T20:26:30.643Z,101269.91
2023-05-20T20:28:58.157Z,101269.81
2023-05-20T20:31:25.481Z,101256.22
2023-05-20T20:33:53.723Z,101265.50
2023-05-20T20:36:21.004Z,101266.69
2023-05-20T20:38:48.577Z,101251.47
2023-05-20T20:41:19.009Z,101254.59
2023-05-20T20:43:46.540Z,101254.06
2023-05-20T20:46:14.985Z,101255.59
2023-05-20T20:48:46.627Z,101256.06
2023-05-20T20:51:15.285Z,101250.34
2023-05-20T20:53:43.804Z,101248.91
2023-05-20T20:56:11.460Z,101243.63
2023-05-20T20:58:39.742Z,101252.56
2023-05-20T21:01:07.357Z,101253.56
2023-05-20T21:03:34.937Z,101251.47
2023-05-20T21:06:02.201Z,101250.16
2023-05-20T21:08:30.633Z,101250.72
2023-05-20T21:10:59.488Z,101244.72
2023-05-20T21:13:28.358Z,101246.78
2023-05-20T21:15:55.861Z,101254.25
2023-05-20T21:18:24.121Z,101248.28
2023-05-20T21:20:53.611Z,101254.09
2023-05-20T21:23:22.206Z,101250.00
2023-05-20T21:25:49.573Z,101247.03
2023-05-20T21:28:17.257Z,101247.69
2023-05-20T21:30:45.182Z,101251.59
2023-05-20T21:33:12.840Z,101236.34
2023-05-20T21:35:40.085Z,101243.91
2023-05-20T21:38:07.594Z,101236.16
2023-05-20T21:40:34.889Z,101232.03
2023-05-20T21:43:02.441Z,101233.94
2023-05-20T21:45:29.715Z,101235.47
2023-05-20T21:47:57.322Z,101230.75
2023-05-20T21:50:24.612Z,101228.63
2023-05-20T21:52:52.876Z,101230.41
2023-05-20T21:55:23.639Z,101230.56
2023-05-20T21:57:51.433Z,101243.09
2023-05-20T22:00:19.263Z,101235.09
2023-05-20T22:02:47.229Z,101242.19
2023-05-20T22:05:14.580Z,101244.16
2023-05-20T22:07:43.333Z,101241.09
2023-05-20T22:10:13.680Z,101231.66
2023-05-20T22:12:44.332Z,101234.59
2023-05-20T22:15:11.894Z,101228.53
2023-05-20T22:17:40.111Z,101240.03
2023-05-20T22:20:08.675Z,101237.06
2023-05-20T22:22:36.922Z,101234.66
2023-05-20T22:25:04.345Z,101244.94
2023-05-20T22:27:32.755Z,101235.97
2023-05-20T22:30:00.057Z,101244.34
2023-05-20T22:32:27.685Z,101235.25
2023-05-20T22:34:58.118Z,101243.22
2023-05-20T22:37:28.926Z,101238.94
2023-05-20T22:39:56.849Z,101225.56
2023-05-20T22:42:24.415Z,101232.97
2023-05-20T22:44:51.647Z,101240.94
2023-05-20T22:47:19.188Z,101242.25
2023-05-20T22:49:46.947Z,101241.09
2023-05-20T22:52:14.586Z,101225.31
2023-05-20T22:54:41.801Z,101222.88
2023-05-20T22:57:09.328Z,101231.28
2023-05-20T22:59:36.769Z,101226.19
2023-05-20T23:02:04.682Z,101238.69
2023-05-20T23:04:32.448Z,101242.41
2023-05-20T23:07:00.171Z,101236.69
2023-05-20T23:09:27.446Z,101223.31
2023-05-20T23:11:54.990Z,101226.16
2023-05-20T23:14:22.380Z,101217.63
2023-05-20T23:16:50.025Z,101217.47
2023-05-20T23:19:17.644Z,101224.16
2023-05-20T23:21:45.567Z,101220.19
2023-05-20T23:24:12.871Z,101212.78
2023-05-20T23:26:40.010Z,101207.50
2023-05-20T23:29:08.567Z,101211.66
2023-05-20T23:31:36.225Z,101214.50
2023-05-20T23:34:04.011Z,101210.94
2023-05-20T23:36:34.521Z,101209.94
2023-05-20T23:39:02.632Z,101199.84
2023-05-20T23:41:30.060Z,101199.84
2023-05-20T23:43:57.643Z,101213.50
2023-05-20T23:46:24.955Z,101209.97
2023-05-20T23:48:53.135Z,101214.22
2023-05-20T23:51:20.825Z,101217.34
2023-05-20T23:53:48.502Z,101209.25
2023-05-20T23:56:15.958Z,101219.34
2023-05-20T23:58:43.475Z,101213.50
